Time;durP1;ratioP1;P1;durP2;ratioP2;P2;SDS_P1;SDS_P2;PMS_P1;PMS_P2;Temp;Humidity;BMP_temperature;BMP_pressure;BME280_temperature;BME280_humidity;BME280_pressure;Samples;Min_cycle;Max_cycle;Signal;HPM_P1;HPM_P2
2022/08/17 00:01:11;;;;;;;26.75;21.75;;;;;;;19.89;100.00;98742.52;1672078;83;21062;-71
2022/08/17 00:03:41;;;;;;;28.80;22.37;;;;;;;19.82;100.00;98735.47;1660219;83;20979;-69
2022/08/17 00:06:21;;;;;;;27.30;23.07;;;;;;;19.80;100.00;98740.47;1691764;83;21251;-71
2022/08/17 00:08:52;;;;;;;30.25;22.10;;;;;;;19.79;100.00;98736.14;1680542;84;21130;-70
2022/08/17 00:11:35;;;;;;;26.50;22.13;;;;;;;19.77;100.00;98740.58;1671897;83;21003;-69
2022/08/17 00:14:12;;;;;;;32.25;23.07;;;;;;;19.81;100.00;98744.77;1693658;82;21188;-69
2022/08/17 00:16:46;;;;;;;24.95;21.65;;;;;;;19.75;100.00;98748.28;1693990;83;20987;-70
2022/08/17 00:19:15;;;;;;;29.05;23.40;;;;;;;19.76;100.00;98743.05;1699456;83;21147;-71
2022/08/17 00:21:45;;;;;;;28.30;21.87;;;;;;;19.75;100.00;98744.19;1668263;84;21063;-71
2022/08/17 00:24:13;;;;;;;25.80;21.42;;;;;;;19.74;100.00;98741.80;1676329;84;20959;-70
2022/08/17 00:26:40;;;;;;;30.68;23.55;;;;;;;19.75;100.00;98740.11;1674304;84;20961;-70
2022/08/17 00:29:07;;;;;;;29.98;21.82;;;;;;;19.75;100.00;98742.05;1659345;84;20904;-69
2022/08/17 00:31:35;;;;;;;28.07;23.22;;;;;;;19.75;100.00;98750.21;1665220;84;21266;-71
2022/08/17 00:34:03;;;;;;;25.27;22.58;;;;;;;19.75;100.00;98744.77;1677011;84;20864;-69
2022/08/17 00:36:31;;;;;;;31.48;24.02;;;;;;;19.75;100.00;98749.64;1673684;84;20937;-70
2022/08/17 00:38:58;;;;;;;29.35;22.75;;;;;;;19.77;100.00;98745.20;1688853;84;21510;-70
2022/08/17 00:41:26;;;;;;;25.25;21.80;;;;;;;19.78;100.00;98744.88;1661235;84;21130;-70
2022/08/17 00:43:56;;;;;;;27.02;22.95;;;;;;;19.77;100.00;98739.76;1664555;84;21204;-70
2022/08/17 00:46:38;;;;;;;29.98;23.10;;;;;;;19.81;100.00;98745.56;1676011;84;20885;-71
2022/08/17 00:49:05;;;;;;;32.17;22.35;;;;;;;19.87;100.00;98744.24;1682828;83;21676;-72
2022/08/17 00:51:49;;;;;;;31.62;24.10;;;;;;;19.86;100.00;98735.83;1660640;84;21039;-69
2022/08/17 00:54:30;;;;;;;31.95;22.42;;;;;;;19.87;100.00;98735.28;1667558;84;20913;-70
2022/08/17 00:57:04;;;;;;;31.90;23.10;;;;;;;19.82;100.00;98735.47;1667119;84;21263;-70
2022/08/17 00:59:34;;;;;;;26.75;23.40;;;;;;;19.83;100.00;98731.05;1655940;84;20925;-70
2022/08/17 01:02:01;;;;;;;32.58;22.58;;;;;;;19.77;100.00;98725.60;1675046;84;20996;-71
2022/08/17 01:04:29;;;;;;;25.52;21.73;;;;;;;19.78;100.00;98723.67;1674734;84;20993;-71
2022/08/17 01:06:56;;;;;;;32.28;22.10;;;;;;;19.76;100.00;98721.27;1669210;84;21031;-70
2022/08/17 01:09:22;;;;;;;28.42;20.55;;;;;;;19.74;100.00;98719.44;1669913;84;21267;-70
2022/08/17 01:11:52;;;;;;;27.25;20.17;;;;;;;19.68;100.00;98716.72;1659416;84;20861;-72
2022/08/17 01:14:21;;;;;;;25.85;19.82;;;;;;;19.64;100.00;98722.55;1662759;84;20901;-72
2022/08/17 01:16:50;;;;;;;29.95;19.85;;;;;;;19.62;100.00;98715.28;1671948;84;20917;-71
2022/08/17 01:19:20;;;;;;;28.23;18.95;;;;;;;19.57;100.00;98716.85;1679887;84;20952;-70
2022/08/17 01:22:15;;;;;;;27.20;18.55;;;;;;;19.54;100.00;98719.67;1681918;84;21250;-70
2022/08/17 01:24:46;;;;;;;22.82;17.85;;;;;;;19.47;100.00;98707.95;1681777;83;20920;-70
2022/08/17 01:27:14;;;;;;;24.47;16.80;;;;;;;19.41;100.00;98716.11;1691223;84;20996;-71
2022/08/17 01:29:44;;;;;;;23.40;16.87;;;;;;;19.36;100.00;98711.44;1705561;82;20892;-71
2022/08/17 01:32:12;;;;;;;21.02;16.82;;;;;;;19.34;100.00;98705.53;1711547;83;21551;-71
2022/08/17 01:34:40;;;;;;;29.82;17.92;;;;;;;19.28;100.00;98707.09;1711686;83;22038;-71
2022/08/17 01:37:07;;;;;;;24.47;17.37;;;;;;;19.26;100.00;98711.27;1698433;83;20999;-72
2022/08/17 01:39:57;;;;;;;25.73;16.23;;;;;;;19.21;100.00;98700.59;1701431;84;20919;-70
2022/08/17 01:42:35;;;;;;;22.67;17.77;;;;;;;19.17;100.00;98702.38;1701441;83;21022;-71
2022/08/17 01:45:15;;;;;;;24.52;17.27;;;;;;;19.14;100.00;98701.69;1680761;84;20927;-69
2022/08/17 01:47:43;;;;;;;24.55;17.40;;;;;;;19.11;100.00;98703.68;1679079;82;21325;-70
2022/08/17 01:50:15;;;;;;;25.32;16.52;;;;;;;19.11;100.00;98700.42;1663002;82;20948;-70
2022/08/17 01:52:44;;;;;;;24.80;18.00;;;;;;;19.12;100.00;98703.93;1658234;82;20951;-71
2022/08/17 01:55:12;;;;;;;30.43;17.85;;;;;;;19.14;100.00;98705.19;1708786;83;20986;-69
2022/08/17 01:57:40;;;;;;;23.45;16.90;;;;;;;19.11;100.00;98701.78;1668984;82;20868;-73
2022/08/17 02:00:09;;;;;;;31.97;18.25;;;;;;;19.09;100.00;98708.68;1704281;83;21153;-69
2022/08/17 02:02:38;;;;;;;26.77;18.77;;;;;;;19.10;100.00;98711.63;1665187;82;21426;-70
2022/08/17 02:05:06;;;;;;;28.30;20.02;;;;;;;19.10;100.00;98705.61;1678903;82;21043;-71
2022/08/17 02:07:35;;;;;;;34.35;20.97;;;;;;;19.11;100.00;98709.12;1670556;83;20954;-70
2022/08/17 02:10:07;;;;;;;32.58;21.25;;;;;;;19.12;100.00;98711.52;1677410;83;20889;-73
2022/08/17 02:12:36;;;;;;;31.90;19.75;;;;;;;19.10;100.00;98704.82;1705297;83;21319;-69
2022/08/17 02:15:08;;;;;;;28.60;18.75;;;;;;;19.10;100.00;98706.18;1670467;82;20993;-71
2022/08/17 02:17:35;;;;;;;33.10;21.17;;;;;;;19.10;100.00;98709.69;1684046;84;21051;-70
2022/08/17 02:20:04;;;;;;;31.37;19.92;;;;;;;19.11;100.00;98703.14;1706823;83;20887;-71
2022/08/17 02:22:31;;;;;;;33.90;20.23;;;;;;;19.11;100.00;98705.86;1705110;83;20840;-70
2022/08/17 02:24:58;;;;;;;31.55;19.45;;;;;;;19.09;100.00;98702.67;1705464;83;21220;-70
2022/08/17 02:27:26;;;;;;;34.05;19.40;;;;;;;19.10;100.00;98698.81;1706103;83;21091;-71
2022/08/17 02:29:52;;;;;;;26.68;18.45;;;;;;;19.07;100.00;98700.84;1709562;83;21078;-72
2022/08/17 02:32:22;;;;;;;23.38;17.07;;;;;;;19.05;100.00;98695.72;1709456;83;20907;-70
2022/08/17 02:34:49;;;;;;;25.97;17.15;;;;;;;18.99;100.00;98698.98;1701585;83;21008;-71
2022/08/17 02:37:17;;;;;;;21.97;17.17;;;;;;;18.94;100.00;98706.77;1710786;83;21873;-69
2022/08/17 02:39:44;;;;;;;20.67;16.43;;;;;;;18.93;100.00;98710.59;1703217;83;20936;-70
2022/08/17 02:42:12;;;;;;;26.93;17.50;;;;;;;18.92;100.00;98707.66;1698998;84;20948;-71
2022/08/17 02:44:40;;;;;;;25.37;18.40;;;;;;;18.88;100.00;98699.92;1705124;83;21326;-71
2022/08/17 02:47:08;;;;;;;24.25;17.02;;;;;;;18.87;100.00;98704.34;1709802;83;20987;-72
2022/08/17 02:49:36;;;;;;;23.35;16.85;;;;;;;18.85;100.00;98699.22;1709103;83;21810;-71
2022/08/17 02:52:05;;;;;;;24.10;17.42;;;;;;;18.81;100.00;98703.17;1709256;83;21034;-71
2022/08/17 02:54:34;;;;;;;24.15;17.40;;;;;;;18.83;100.00;98702.26;1704728;83;21150;-71
2022/08/17 02:57:02;;;;;;;26.97;15.10;;;;;;;18.79;100.00;98699.98;1704099;83;21431;-72
2022/08/17 02:59:29;;;;;;;25.45;16.80;;;;;;;18.74;100.00;98694.70;1703852;83;20983;-70
2022/08/17 03:01:56;;;;;;;25.10;15.20;;;;;;;18.72;100.00;98696.16;1706790;83;21259;-71
2022/08/17 03:04:23;;;;;;;24.95;14.28;;;;;;;18.69;100.00;98696.80;1709697;82;20916;-70
2022/08/17 03:06:50;;;;;;;19.55;13.93;;;;;;;18.69;100.00;98695.44;1714316;83;21114;-70
2022/08/17 03:09:17;;;;;;;18.05;13.22;;;;;;;18.69;100.00;98703.59;1710783;83;20923;-72
2022/08/17 03:11:44;;;;;;;28.77;13.55;;;;;;;18.66;100.00;98698.82;1711335;83;21568;-71
2022/08/17 03:14:11;;;;;;;15.25;12.03;;;;;;;18.63;100.00;98699.70;1708777;83;21390;-68
2022/08/17 03:16:37;;;;;;;19.02;12.80;;;;;;;18.63;100.00;98705.14;1707974;83;21029;-70
2022/08/17 03:19:04;;;;;;;19.02;13.55;;;;;;;18.62;100.00;98709.00;1712209;83;20947;-70
2022/08/17 03:21:31;;;;;;;21.10;12.85;;;;;;;18.62;100.00;98706.84;1712000;83;20943;-70
2022/08/17 03:23:58;;;;;;;17.25;12.75;;;;;;;18.62;100.00;98704.13;1709746;83;21049;-72
2022/08/17 03:26:24;;;;;;;17.20;12.15;;;;;;;18.59;100.00;98717.81;1708344;83;21110;-70
2022/08/17 03:28:52;;;;;;;17.60;12.33;;;;;;;18.63;100.00;98709.78;1703373;83;21032;-70
2022/08/17 03:31:20;;;;;;;18.67;11.75;;;;;;;18.63;100.00;98706.50;1698927;83;20930;-70
2022/08/17 03:33:47;;;;;;;16.27;11.53;;;;;;;18.64;100.00;98708.11;1710182;83;21453;-76
2022/08/17 03:36:14;;;;;;;17.17;11.35;;;;;;;18.66;100.00;98706.97;1708828;83;21501;-70
2022/08/17 03:38:41;;;;;;;18.92;12.00;;;;;;;18.63;100.00;98709.22;1707012;83;21108;-71
2022/08/17 03:41:07;;;;;;;14.87;11.05;;;;;;;18.67;100.00;98708.55;1710077;83;20899;-72
2022/08/17 03:43:34;;;;;;;19.75;11.55;;;;;;;18.68;100.00;98712.31;1707641;83;21588;-71
2022/08/17 03:57:09;;;;;;;19.42;11.53;;;;;;;18.73;100.00;98715.41;1696564;84;20876;-72
2022/08/17 03:59:37;;;;;;;15.38;11.12;;;;;;;18.71;100.00;98717.09;1677068;84;21048;-72
2022/08/17 04:02:11;;;;;;;20.40;10.78;;;;;;;18.74;100.00;98718.36;1701802;83;20931;-71
2022/08/17 04:04:38;;;;;;;17.90;11.38;;;;;;;18.77;100.00;98721.83;1705940;83;21765;-71
2022/08/17 04:07:05;;;;;;;18.45;11.18;;;;;;;18.86;100.00;98722.55;1712345;83;20900;-71
2022/08/17 04:09:33;;;;;;;16.77;10.30;;;;;;;18.91;100.00;98722.93;1709829;83;25230;-72
2022/08/17 04:12:00;;;;;;;18.80;10.43;;;;;;;18.95;100.00;75146.70;1708578;83;20935;-72
2022/08/17 04:14:29;;;;;;;20.27;10.32;;;;;;;18.97;100.00;98726.50;1690403;83;20952;-72
2022/08/17 04:16:56;;;;;;;14.55;9.90;;;;;;;18.97;100.00;98722.42;1660517;82;21171;-69
2022/08/17 04:19:23;;;;;;;16.62;10.85;;;;;;;19.05;100.00;98720.77;1681958;84;21017;-69
2022/08/17 04:21:52;;;;;;;;;;;;;;;19.05;100.00;98720.20;1706560;83;21224;-69
2022/08/17 04:24:19;;;;;;;16.93;10.50;;;;;;;19.10;100.00;98723.86;1715740;83;20174;-70
2022/08/17 04:26:45;;;;;;;18.90;9.78;;;;;;;19.17;100.00;98726.85;1715134;83;21559;-71
2022/08/17 04:29:12;;;;;;;14.25;8.85;;;;;;;19.21;100.00;98723.71;1715438;83;21110;-71
2022/08/17 04:31:39;;;;;;;13.40;9.75;;;;;;;19.19;100.00;98716.44;1689164;82;21022;-71
2022/08/17 04:34:06;;;;;;;13.32;9.15;;;;;;;19.19;100.00;98713.16;1701156;83;21443;-71
2022/08/17 04:36:33;;;;;;;15.95;9.85;;;;;;;19.23;100.00;98713.27;1697655;83;20998;-72
2022/08/17 04:39:00;;;;;;;15.00;9.95;;;;;;;19.25;100.00;98719.19;1672505;83;20942;-72
2022/08/17 04:44:12;;;;;;;13.93;9.43;;;;;;;19.43;100.00;98711.70;1680798;82;20967;-73
2022/08/17 04:46:39;;;;;;;14.00;9.73;;;;;;;19.56;100.00;98716.06;1689856;84;20973;-72
2022/08/17 04:49:09;;;;;;;10.82;9.35;;;;;;;19.62;100.00;98707.11;1698278;82;20938;-73
2022/08/17 04:51:40;;;;;;;14.60;9.55;;;;;;;19.70;100.00;98709.02;1698862;83;21041;-74
2022/08/17 04:54:13;;;;;;;14.63;10.25;;;;;;;19.73;100.00;98702.09;1692060;82;21124;-73
2022/08/17 04:56:40;;;;;;;13.35;10.03;;;;;;;19.78;100.00;98692.36;1685186;82;21003;-73
2022/08/17 04:59:11;;;;;;;21.62;11.10;;;;;;;19.83;100.00;98698.95;1678935;83;20926;-70
2022/08/17 05:01:39;;;;;;;17.45;10.18;;;;;;;19.83;100.00;98698.95;1694198;83;21075;-71
2022/08/17 05:04:12;;;;;;;18.25;10.35;;;;;;;19.97;100.00;98697.30;1700292;82;21491;-73
2022/08/17 05:06:39;;;;;;;19.60;10.90;;;;;;;19.99;100.00;98702.64;1695070;84;21203;-72
2022/08/17 05:09:06;;;;;;;16.75;10.15;;;;;;;20.02;100.00;98699.80;1695569;84;21595;-72
2022/08/17 05:11:34;;;;;;;17.75;10.32;;;;;;;20.12;100.00;98704.81;1690195;83;21531;-70
2022/08/17 05:14:02;;;;;;;12.07;10.08;;;;;;;20.17;100.00;98707.32;1685243;82;20934;-72
2022/08/17 05:16:29;;;;;;;;;;;;;;;20.22;100.00;98704.95;1701417;83;20982;-71
2022/08/17 05:18:57;;;;;;;21.57;12.28;;;;;;;20.25;100.00;98709.14;1668048;84;21943;-72
2022/08/17 05:21:25;;;;;;;;;;;;;;;20.31;100.00;98711.09;1675885;82;21002;-73
2022/08/17 05:23:53;;;;;;;17.60;12.88;;;;;;;20.53;100.00;98713.37;1665268;82;20087;-72
2022/08/17 05:26:21;;;;;;;18.98;10.78;;;;;;;20.62;100.00;98717.38;1679815;83;21015;-73
2022/08/17 05:28:48;;;;;;;11.10;8.95;;;;;;;-92.48;100.00;121243.23;1674181;82;21587;-72
2022/08/17 05:31:18;;;;;;;11.80;7.95;;;;;;;21.29;100.00;98715.15;1674450;84;21283;-71
2022/08/17 05:33:45;;;;;;;16.00;8.30;;;;;;;21.60;100.00;98717.79;1682742;82;21418;-73
2022/08/17 05:36:13;;;;;;;15.70;7.70;;;;;;;21.99;100.00;98719.44;1662732;82;21015;-72
2022/08/17 05:38:40;;;;;;;;;;;;;;;22.36;100.00;98717.88;1679436;83;21497;-73
2022/08/17 05:41:08;;;;;;;10.05;7.08;;;;;;;22.56;100.00;98718.16;1661811;82;20105;-71
2022/08/17 05:43:38;;;;;;;13.53;6.95;;;;;;;22.98;100.00;98726.39;1673200;84;21903;-71
2022/08/17 05:46:26;;;;;;;11.22;7.87;;;;;;;23.41;100.00;98731.45;1661953;82;21067;-72
2022/08/17 05:48:58;;;;;;;13.48;7.12;;;;;;;23.87;100.00;98728.87;1671539;82;21049;-73
2022/08/17 05:51:54;;;;;;;11.78;7.75;;;;;;;23.72;100.00;98734.63;1674355;82;21022;-72
2022/08/17 05:55:00;;;;;;;16.00;7.62;;;;;;;23.58;100.00;98736.49;1680616;82;20920;-71
2022/08/17 05:57:44;;;;;;;14.10;7.95;;;;;;;23.38;100.00;98736.28;1690894;84;21260;-70
2022/08/17 06:00:19;;;;;;;10.78;6.95;;;;;;;23.02;100.00;98737.64;1678108;83;21126;-69
2022/08/17 06:03:10;;;;;;;18.77;7.92;;;;;;;22.92;100.00;98734.06;1682884;82;20940;-71
2022/08/17 06:05:52;;;;;;;12.63;7.97;;;;;;;23.05;100.00;98736.13;1665285;82;20919;-70
2022/08/17 06:08:44;;;;;;;12.65;7.70;;;;;;;23.00;100.00;98745.99;1668303;84;21018;-71
2022/08/17 06:11:34;;;;;;;14.07;8.00;;;;;;;22.98;100.00;98745.55;1661664;82;21261;-72
2022/08/17 06:14:23;;;;;;;14.78;7.58;;;;;;;23.03;100.00;98751.56;1674063;82;20904;-70
2022/08/17 06:16:55;;;;;;;13.00;7.65;;;;;;;23.19;100.00;98752.09;1647513;82;21593;-72
2022/08/17 06:19:48;;;;;;;18.45;7.53;;;;;;;23.39;100.00;98747.44;1661408;82;20968;-70
2022/08/17 06:22:18;;;;;;;15.00;8.30;;;;;;;23.24;100.00;98749.86;1659014;82;21553;-72
2022/08/17 06:25:20;;;;;;;10.85;8.53;;;;;;;23.36;100.00;98744.05;1678904;84;21256;-72
2022/08/17 06:27:57;;;;;;;10.65;8.10;;;;;;;23.38;100.00;98751.34;1659802;84;20896;-71
2022/08/17 06:30:31;;;;;;;10.70;7.17;;;;;;;23.86;100.00;98749.19;1675793;84;21036;-74
2022/08/17 06:33:14;;;;;;;12.95;8.10;;;;;;;24.11;100.00;98756.55;1679193;84;21473;-72
2022/08/17 06:35:49;;;;;;;19.70;7.72;;;;;;;24.22;100.00;98760.84;1663494;85;21109;-72
2022/08/17 06:38:31;;;;;;;12.18;7.40;;;;;;;24.69;100.00;98763.82;1666956;85;22329;-73
2022/08/17 06:41:17;;;;;;;12.47;7.15;;;;;;;25.26;100.00;98774.91;1674802;85;21008;-72
2022/08/17 06:44:06;;;;;;;19.77;8.40;;;;;;;25.24;100.00;98770.58;1673426;85;21020;-71
2022/08/17 06:46:41;;;;;;;15.45;7.42;;;;;;;25.07;100.00;98770.30;1675579;85;21141;-69
2022/08/17 06:49:27;;;;;;;13.90;7.90;;;;;;;25.15;100.00;98777.47;1673029;85;21003;-72
2022/08/17 06:52:18;;;;;;;16.57;8.00;;;;;;;25.38;100.00;98777.42;1659223;85;21342;-74
2022/08/17 06:55:09;;;;;;;16.40;7.80;;;;;;;25.31;100.00;98778.73;1675176;85;20976;-70
2022/08/17 06:57:39;;;;;;;13.45;8.23;;;;;;;25.04;100.00;98778.70;1660614;85;21021;-73
2022/08/17 07:00:18;;;;;;;24.87;8.50;;;;;;;24.96;100.00;98776.98;1643882;85;21040;-71
2022/08/17 07:03:21;;;;;;;21.23;9.28;;;;;;;24.75;100.00;98782.95;1676702;84;21020;-72
2022/08/17 07:05:59;;;;;;;18.87;8.73;;;;;;;24.64;100.00;98779.22;1677050;84;21259;-70
2022/08/17 07:08:43;;;;;;;21.25;9.50;;;;;;;24.48;100.00;98778.77;1689011;84;20940;-70
2022/08/17 07:11:49;;;;;;;15.45;8.23;;;;;;;24.54;100.00;98779.25;1672284;84;21055;-71
2022/08/17 07:14:38;;;;;;;22.05;9.13;;;;;;;24.55;100.00;98785.76;1677053;84;21506;-72
2022/08/17 07:17:13;;;;;;;17.37;8.43;;;;;;;24.56;100.00;98788.70;1666431;84;20956;-71
2022/08/17 07:19:44;;;;;;;17.77;7.92;;;;;;;24.86;100.00;98783.11;1655935;84;21850;-71
2022/08/17 07:22:31;;;;;;;18.05;8.50;;;;;;;25.24;100.00;98784.31;1670987;82;20857;-71
2022/08/17 07:25:06;;;;;;;17.10;8.88;;;;;;;25.42;100.00;98785.92;1663108;82;21000;-70
2022/08/17 07:27:44;;;;;;;20.65;10.68;;;;;;;25.68;100.00;98784.91;1668401;82;20888;-71
2022/08/17 07:30:23;;;;;;;12.93;9.48;;;;;;;25.81;100.00;98779.36;1705782;83;20963;-72
2022/08/17 07:32:56;;;;;;;14.68;8.65;;;;;;;26.11;100.00;98777.17;1682440;82;21271;-72
2022/08/17 07:35:38;;;;;;;22.00;8.95;;;;;;;26.11;100.00;98778.55;1689992;82;21396;-72
2022/08/17 07:38:23;;;;;;;14.85;8.53;;;;;;;26.27;100.00;98778.52;1675369;84;21072;-73
2022/08/17 07:41:03;;;;;;;13.08;8.58;;;;;;;26.68;100.00;98775.00;1689603;83;21022;-71
2022/08/17 07:43:44;;;;;;;16.50;9.30;;;;;;;26.77;100.00;98787.05;1662887;82;21000;-73
2022/08/17 07:49:33;;;;;;;14.70;8.05;;;;;;;27.50;96.01;98787.17;1660078;82;21490;-72
2022/08/17 07:52:08;;;;;;;18.35;8.63;;;;;;;27.80;94.13;98778.63;1665555;82;20952;-71
2022/08/17 07:54:39;;;;;;;17.82;8.30;;;;;;;28.06;90.40;98778.95;1684089;83;21086;-72
2022/08/17 07:57:17;;;;;;;19.95;8.28;;;;;;;27.77;87.07;98789.85;1693290;84;20860;-72
2022/08/17 08:00:02;;;;;;;16.10;8.68;;;;;;;27.57;94.21;98783.08;1661110;82;21217;-75
2022/08/17 08:02:39;;;;;;;13.43;7.90;;;;;;;27.07;95.62;98771.16;1672575;82;21635;-74
2022/08/17 08:05:22;;;;;;;20.05;9.98;;;;;;;26.69;100.00;98771.85;1676737;83;20976;-73
2022/08/17 08:08:05;;;;;;;16.80;8.93;;;;;;;26.87;100.00;98772.58;1659018;82;20937;-70
2022/08/17 08:10:39;;;;;;;19.00;8.33;;;;;;;27.37;98.81;98782.59;1682962;84;21105;-73
2022/08/17 08:13:13;;;;;;;13.00;7.75;;;;;;;27.39;95.97;98778.86;1679938;82;20928;-71
2022/08/17 08:15:47;;;;;;;16.32;8.63;;;;;;;27.60;94.80;98768.52;1693489;84;20892;-71
2022/08/17 08:18:29;;;;;;;15.98;9.80;;;;;;;27.84;90.45;98774.56;1662909;82;21038;-71
2022/08/17 08:21:07;;;;;;;16.82;8.60;;;;;;;27.92;92.31;98772.02;1666105;84;20924;-72
2022/08/17 08:24:12;;;;;;;16.50;9.03;;;;;;;27.83;94.96;98771.02;1655373;83;21109;-72
2022/08/17 08:27:08;;;;;;;13.65;8.63;;;;;;;27.60;97.75;98775.41;1656087;84;21183;-72
2022/08/17 08:29:53;;;;;;;11.97;8.03;;;;;;;27.62;98.07;98775.81;1651563;84;37514;-72
2022/08/17 08:33:07;;;;;;;15.43;8.88;;;;;;;27.70;96.81;98780.17;1643126;84;20861;-72
2022/08/17 08:35:49;;;;;;;13.60;8.08;;;;;;;27.60;95.16;98779.55;1699250;84;20878;-72
2022/08/17 08:38:33;;;;;;;13.65;7.70;;;;;;;27.38;96.52;98775.10;1693235;82;20997;-73
2022/08/17 08:41:21;;;;;;;12.23;7.47;;;;;;;27.52;90.14;98774.59;1661726;84;21648;-73
2022/08/17 08:44:11;;;;;;;;;;;;;;;27.75;88.67;98779.02;1667121;84;21095;-72
2022/08/17 08:47:07;;;;;;;8.40;6.20;;;;;;;27.73;89.75;98782.17;1664984;84;20262;-70
2022/08/17 08:50:18;;;;;;;13.43;7.08;;;;;;;27.75;88.85;98782.55;1657036;84;21000;-70
2022/08/17 08:53:22;;;;;;;15.98;7.22;;;;;;;28.08;84.84;98787.63;1629229;86;20991;-71
2022/08/17 08:55:57;;;;;;;15.68;7.92;;;;;;;28.06;78.79;98786.45;1636418;86;21929;-73
2022/08/17 08:58:50;;;;;;;26.15;8.88;;;;;;;27.84;87.08;98791.10;1651148;86;20926;-72
2022/08/17 09:01:27;;;;;;;18.00;7.90;;;;;;;28.17;83.50;98794.14;1648300;86;20913;-73
2022/08/17 09:04:14;;;;;;;21.52;8.45;;;;;;;28.43;77.14;98790.27;1649680;86;20914;-72
2022/08/17 09:07:02;;;;;;;16.85;7.53;;;;;;;28.52;75.28;98798.98;1650682;86;20994;-70
2022/08/17 09:09:49;;;;;;;16.82;8.50;;;;;;;28.27;73.53;98795.34;1649064;86;21334;-72
2022/08/17 09:12:31;;;;;;;;;;;;;;;27.83;75.22;98792.27;1580617;89;21069;-72
2022/08/17 09:15:14;;;;;;;13.18;7.72;;;;;;;27.76;76.90;98792.42;1578518;89;20164;-74
2022/08/17 09:18:13;;;;;;;16.15;8.35;;;;;;;27.83;77.67;98795.02;1541224;90;20969;-73
2022/08/17 09:21:03;;;;;;;21.52;7.97;;;;;;;27.85;77.38;98798.19;1522119;91;20999;-72
2022/08/17 09:23:43;;;;;;;9.83;7.08;;;;;;;28.07;78.66;98800.42;1557346;89;21881;-71
2022/08/17 09:26:33;;;;;;;14.80;8.50;;;;;;;28.62;74.20;98796.81;1556439;89;21512;-72
2022/08/17 09:29:05;;;;;;;12.43;6.85;;;;;;;29.21;71.73;98801.95;1638080;86;20950;-72
2022/08/17 09:31:38;;;;;;;18.85;7.22;;;;;;;29.39;65.05;98801.90;1628302;86;21028;-73
2022/08/17 09:34:10;;;;;;;17.15;7.42;;;;;;;29.31;61.69;98796.80;1628846;87;20974;-73
2022/08/17 09:36:46;;;;;;;13.53;7.28;;;;;;;29.22;61.22;98799.36;1604422;88;21556;-72
2022/08/17 09:39:21;;;;;;;13.58;7.12;;;;;;;29.64;59.71;98793.55;1629294;87;21464;-71
2022/08/17 09:41:56;;;;;;;18.67;7.17;;;;;;;29.90;59.65;98791.48;1628463;86;21074;-72
2022/08/17 09:44:31;;;;;;;19.00;7.75;;;;;;;29.58;58.02;98795.73;1611525;86;21003;-74
2022/08/17 09:47:06;;;;;;;16.57;6.62;;;;;;;29.04;58.98;98785.55;1628743;87;21090;-72
2022/08/17 09:49:46;;;;;;;10.10;6.58;;;;;;;28.60;61.27;98792.88;1642329;85;21478;-70
2022/08/17 09:52:25;;;;;;;11.65;6.65;;;;;;;28.27;62.82;98789.83;1635182;84;20924;-71
2022/08/17 09:54:54;;;;;;;15.00;7.03;;;;;;;28.00;62.60;98788.77;1663517;86;21134;-72
2022/08/17 09:57:56;;;;;;;16.05;7.17;;;;;;;27.93;63.56;98790.16;1652084;84;20967;-73
2022/08/17 10:00:28;;;;;;;15.32;6.37;;;;;;;27.99;65.70;98785.83;1662874;83;21613;-71
2022/08/17 10:03:34;;;;;;;12.65;7.22;;;;;;;28.17;63.96;98794.14;1642312;84;21923;-72
2022/08/17 10:06:21;;;;;;;15.60;6.70;;;;;;;28.46;62.29;98783.98;1646097;84;21095;-72
2022/08/17 10:09:09;;;;;;;10.95;6.40;;;;;;;28.71;61.84;98788.73;1651661;84;20983;-73
2022/08/17 10:14:53;;;;;;;16.80;6.65;;;;;;;29.76;57.94;98780.48;1630831;84;20104;-72
2022/08/17 10:17:49;;;;;;;14.63;6.25;;;;;;;29.90;56.92;98781.81;1638862;84;21098;-72
2022/08/17 10:20:32;;;;;;;11.50;6.97;;;;;;;30.09;55.64;98773.02;1659348;84;21030;-72
2022/08/17 10:26:18;;;;;;;10.72;6.67;;;;;;;30.33;55.64;98775.47;1669036;84;20973;-74
2022/08/17 10:29:01;;;;;;;14.47;6.92;;;;;;;30.54;53.24;98780.64;1690074;84;20975;-73
2022/08/17 10:31:48;;;;;;;11.38;6.10;;;;;;;30.85;53.35;98779.45;1677808;84;21421;-76
2022/08/17 10:34:49;;;;;;;15.43;6.30;;;;;;;30.91;51.88;98774.42;1662477;84;20892;-73
2022/08/17 10:37:50;;;;;;;11.60;5.37;;;;;;;30.88;53.24;98770.31;1679476;84;21530;-75
2022/08/17 10:40:31;;;;;;;12.13;5.70;;;;;;;31.02;52.77;98777.11;1663424;84;20921;-74
2022/08/17 10:43:11;;;;;;;12.63;6.33;;;;;;;30.80;52.36;98784.02;1681046;83;20941;-72
2022/08/17 10:45:50;;;;;;;11.80;6.12;;;;;;;30.24;52.79;98782.02;1710016;83;21255;-74
2022/08/17 10:48:37;;;;;;;14.20;6.42;;;;;;;29.66;55.74;98771.83;1711363;83;21009;-74
2022/08/17 10:51:11;;;;;;;14.13;6.53;;;;;;;29.35;56.24;98772.13;1708337;83;21193;-72
2022/08/17 10:53:44;;;;;;;17.23;6.28;;;;;;;29.14;56.25;98774.33;1712396;82;20951;-74
2022/08/17 10:56:20;;;;;;;14.35;6.80;;;;;;;28.96;58.06;98774.93;1708170;83;20876;-73
2022/08/17 10:58:57;;;;;;;15.95;6.60;;;;;;;28.99;57.36;98773.53;1706917;83;21915;-74
2022/08/17 11:01:42;;;;;;;10.48;6.58;;;;;;;29.34;57.23;98769.75;1707139;83;20856;-73
2022/08/17 11:04:46;;;;;;;9.55;5.72;;;;;;;30.02;55.96;98761.98;1671774;84;21477;-73
2022/08/17 11:07:37;;;;;;;11.30;6.08;;;;;;;30.43;52.50;98771.05;1662584;84;21055;-72
2022/08/17 11:10:24;;;;;;;13.18;6.10;;;;;;;30.46;51.96;98764.69;1672386;84;20932;-71
2022/08/17 11:13:23;;;;;;;14.53;6.28;;;;;;;30.85;51.12;98770.53;1632312;85;21212;-71
2022/08/17 11:16:31;;;;;;;11.00;5.92;;;;;;;30.98;49.84;98766.05;1649059;85;20952;-72
2022/08/17 11:19:31;;;;;;;15.83;6.40;;;;;;;30.31;51.31;98770.92;1640618;85;20885;-75
2022/08/17 11:22:25;;;;;;;18.67;6.92;;;;;;;29.80;52.89;98764.67;1633417;85;21065;-75
2022/08/17 11:24:52;;;;;;;13.80;6.03;;;;;;;29.39;54.15;98761.83;1654279;86;21098;-74
2022/08/17 11:27:30;;;;;;;14.10;6.42;;;;;;;29.16;54.95;98754.00;1636660;85;21150;-74
2022/08/17 11:30:08;;;;;;;10.28;5.80;;;;;;;29.12;55.60;98753.81;1632813;85;21090;-74
2022/08/17 11:32:44;;;;;;;11.85;6.15;;;;;;;29.35;53.57;98753.34;1640709;84;21592;-73
2022/08/17 11:35:28;;;;;;;10.48;6.17;;;;;;;29.66;52.52;98747.54;1651983;85;21050;-74
2022/08/17 11:38:24;;;;;;;15.68;6.40;;;;;;;29.99;51.87;98736.52;1653719;84;21020;-71
2022/08/17 11:41:14;;;;;;;8.63;4.95;;;;;;;30.24;51.25;98742.48;1647954;85;21247;-72
2022/08/17 11:44:11;;;;;;;9.10;5.30;;;;;;;30.56;50.25;98747.80;1624610;86;20988;-74
2022/08/17 11:53:41;;;;;;;12.80;6.37;;;;;;;30.62;50.11;98735.08;1668104;85;21432;-73
2022/08/17 11:56:40;;;;;;;14.18;7.10;;;;;;;30.27;50.62;98735.55;1664220;84;22052;-71
2022/08/17 11:59:34;;;;;;;9.10;6.12;;;;;;;29.82;52.11;98742.94;1672409;84;21001;-77
2022/08/17 12:02:34;;;;;;;14.58;6.00;;;;;;;29.51;51.27;98736.33;1671109;84;21545;-76
2022/08/17 12:05:23;;;;;;;11.90;6.58;;;;;;;29.66;52.26;98733.11;1668294;85;21051;-75
2022/08/17 12:08:14;;;;;;;12.35;6.00;;;;;;;30.04;50.54;98728.39;1687618;84;21560;-72
